sensor_id;sensor_type;location;lat;lon;timestamp;temperature;humidity
27258;DHT22;62045;49.986;8.672;2022-10-31T00:02:42;19.90;71.90
27258;DHT22;62045;49.986;8.672;2022-10-31T00:07:43;19.90;71.90
27258;DHT22;62045;49.986;8.672;2022-10-31T00:12:44;20.00;71.90
27258;DHT22;62045;49.986;8.672;2022-10-31T00:17:46;19.90;71.80
27258;DHT22;62045;49.986;8.672;2022-10-31T00:22:46;19.90;71.80
27258;DHT22;62045;49.986;8.672;2022-10-31T00:27:47;19.90;71.70
27258;DHT22;62045;49.986;8.672;2022-10-31T00:32:49;19.90;71.70
27258;DHT22;62045;49.986;8.672;2022-10-31T00:37:52;19.90;71.70
27258;DHT22;62045;49.986;8.672;2022-10-31T00:42:52;19.90;71.60
27258;DHT22;62045;49.986;8.672;2022-10-31T00:47:54;19.90;71.70
27258;DHT22;62045;49.986;8.672;2022-10-31T00:52:55;19.80;71.70
27258;DHT22;62045;49.986;8.672;2022-10-31T00:57:56;19.80;71.70
27258;DHT22;62045;49.986;8.672;2022-10-31T01:02:58;19.80;71.70
27258;DHT22;62045;49.986;8.672;2022-10-31T01:07:59;19.80;71.80
27258;DHT22;62045;49.986;8.672;2022-10-31T01:13:01;19.80;71.80
27258;DHT22;62045;49.986;8.672;2022-10-31T01:18:03;19.80;71.80
27258;DHT22;62045;49.986;8.672;2022-10-31T01:23:05;19.70;71.70
27258;DHT22;62045;49.986;8.672;2022-10-31T01:28:06;19.70;71.70
27258;DHT22;62045;49.986;8.672;2022-10-31T01:33:08;19.70;71.70
27258;DHT22;62045;49.986;8.672;2022-10-31T01:38:09;19.70;71.70
27258;DHT22;62045;49.986;8.672;2022-10-31T01:43:13;19.70;71.70
27258;DHT22;62045;49.986;8.672;2022-10-31T01:48:19;19.70;71.70
27258;DHT22;62045;49.986;8.672;2022-10-31T01:53:21;19.70;71.70
27258;DHT22;62045;49.986;8.672;2022-10-31T01:58:25;19.60;71.70
27258;DHT22;62045;49.986;8.672;2022-10-31T02:03:29;19.60;71.70
27258;DHT22;62045;49.986;8.672;2022-10-31T02:08:33;19.60;71.70
27258;DHT22;62045;49.986;8.672;2022-10-31T02:13:34;19.60;71.70
27258;DHT22;62045;49.986;8.672;2022-10-31T02:18:37;19.60;71.70
27258;DHT22;62045;49.986;8.672;2022-10-31T02:23:52;19.70;71.70
27258;DHT22;62045;49.986;8.672;2022-10-31T02:29:16;19.70;71.60
27258;DHT22;62045;49.986;8.672;2022-10-31T02:34:26;19.70;71.60
27258;DHT22;62045;49.986;8.672;2022-10-31T02:39:35;19.70;71.60
27258;DHT22;62045;49.986;8.672;2022-10-31T02:44:45;19.70;71.60
27258;DHT22;62045;49.986;8.672;2022-10-31T02:49:54;19.60;71.50
27258;DHT22;62045;49.986;8.672;2022-10-31T02:54:56;19.60;71.50
27258;DHT22;62045;49.986;8.672;2022-10-31T03:00:00;19.70;71.50
27258;DHT22;62045;49.986;8.672;2022-10-31T03:05:25;19.70;71.50
27258;DHT22;62045;49.986;8.672;2022-10-31T03:10:35;19.60;71.40
27258;DHT22;62045;49.986;8.672;2022-10-31T03:15:39;19.60;71.40
27258;DHT22;62045;49.986;8.672;2022-10-31T03:20:45;19.60;71.40
27258;DHT22;62045;49.986;8.672;2022-10-31T03:25:48;19.60;71.40
27258;DHT22;62045;49.986;8.672;2022-10-31T03:30:50;19.60;71.40
27258;DHT22;62045;49.986;8.672;2022-10-31T03:35:55;19.50;71.40
27258;DHT22;62045;49.986;8.672;2022-10-31T03:40:59;19.50;71.40
27258;DHT22;62045;49.986;8.672;2022-10-31T03:46:01;19.50;71.40
27258;DHT22;62045;49.986;8.672;2022-10-31T03:51:08;19.50;71.40
27258;DHT22;62045;49.986;8.672;2022-10-31T03:56:17;19.50;71.50
27258;DHT22;62045;49.986;8.672;2022-10-31T04:01:21;19.50;71.40
27258;DHT22;62045;49.986;8.672;2022-10-31T04:06:26;19.50;71.50
27258;DHT22;62045;49.986;8.672;2022-10-31T04:11:30;19.50;71.50
27258;DHT22;62045;49.986;8.672;2022-10-31T04:16:50;19.40;71.40
27258;DHT22;62045;49.986;8.672;2022-10-31T04:21:52;19.40;71.40
27258;DHT22;62045;49.986;8.672;2022-10-31T04:26:53;19.40;71.30
27258;DHT22;62045;49.986;8.672;2022-10-31T04:31:57;19.40;71.40
27258;DHT22;62045;49.986;8.672;2022-10-31T04:36:59;19.50;71.40
27258;DHT22;62045;49.986;8.672;2022-10-31T04:42:00;19.40;71.30
27258;DHT22;62045;49.986;8.672;2022-10-31T04:47:01;19.50;71.40
27258;DHT22;62045;49.986;8.672;2022-10-31T04:52:03;19.40;71.20
27258;DHT22;62045;49.986;8.672;2022-10-31T04:57:04;19.40;71.30
27258;DHT22;62045;49.986;8.672;2022-10-31T05:02:05;19.50;71.50
27258;DHT22;62045;49.986;8.672;2022-10-31T05:07:30;19.50;71.50
27258;DHT22;62045;49.986;8.672;2022-10-31T05:12:31;19.50;71.60
27258;DHT22;62045;49.986;8.672;2022-10-31T05:17:52;19.50;71.60
27258;DHT22;62045;49.986;8.672;2022-10-31T05:23:13;19.50;71.40
27258;DHT22;62045;49.986;8.672;2022-10-31T05:28:15;19.50;71.40
27258;DHT22;62045;49.986;8.672;2022-10-31T05:33:16;19.50;71.40
27258;DHT22;62045;49.986;8.672;2022-10-31T05:38:41;19.40;71.30
27258;DHT22;62045;49.986;8.672;2022-10-31T05:43:50;19.50;71.30
27258;DHT22;62045;49.986;8.672;2022-10-31T05:48:55;19.40;71.20
27258;DHT22;62045;49.986;8.672;2022-10-31T05:54:15;19.40;71.20
27258;DHT22;62045;49.986;8.672;2022-10-31T05:59:18;19.40;71.20
27258;DHT22;62045;49.986;8.672;2022-10-31T06:04:19;19.40;71.20
27258;DHT22;62045;49.986;8.672;2022-10-31T06:09:21;19.30;71.20
27258;DHT22;62045;49.986;8.672;2022-10-31T06:14:22;19.30;71.20
27258;DHT22;62045;49.986;8.672;2022-10-31T06:19:28;19.30;71.30
27258;DHT22;62045;49.986;8.672;2022-10-31T06:24:30;19.30;71.30
27258;DHT22;62045;49.986;8.672;2022-10-31T06:29:41;19.30;71.30
27258;DHT22;62045;49.986;8.672;2022-10-31T06:34:45;19.30;72.30
27258;DHT22;62045;49.986;8.672;2022-10-31T06:39:47;19.40;72.50
27258;DHT22;62045;49.986;8.672;2022-10-31T06:44:50;19.40;72.30
27258;DHT22;62045;49.986;8.672;2022-10-31T06:50:09;19.40;72.10
27258;DHT22;62045;49.986;8.672;2022-10-31T06:55:14;19.40;72.00
27258;DHT22;62045;49.986;8.672;2022-10-31T07:00:15;19.40;72.00
27258;DHT22;62045;49.986;8.672;2022-10-31T07:05:18;19.40;72.10
27258;DHT22;62045;49.986;8.672;2022-10-31T07:10:24;19.40;72.10
27258;DHT22;62045;49.986;8.672;2022-10-31T07:15:34;19.40;72.00
27258;DHT22;62045;49.986;8.672;2022-10-31T07:20:35;19.40;71.90
27258;DHT22;62045;49.986;8.672;2022-10-31T07:25:38;19.30;71.80
27258;DHT22;62045;49.986;8.672;2022-10-31T07:30:54;19.30;71.80
27258;DHT22;62045;49.986;8.672;2022-10-31T07:35:56;19.30;71.70
27258;DHT22;62045;49.986;8.672;2022-10-31T07:41:03;19.30;72.50
27258;DHT22;62045;49.986;8.672;2022-10-31T07:46:06;19.30;71.70
27258;DHT22;62045;49.986;8.672;2022-10-31T07:51:30;19.30;71.60
27258;DHT22;62045;49.986;8.672;2022-10-31T07:56:50;19.30;71.60
27258;DHT22;62045;49.986;8.672;2022-10-31T08:01:51;19.30;71.60
27258;DHT22;62045;49.986;8.672;2022-10-31T08:07:21;19.30;71.50
27258;DHT22;62045;49.986;8.672;2022-10-31T08:12:31;19.30;71.50
27258;DHT22;62045;49.986;8.672;2022-10-31T08:17:34;19.30;71.40
27258;DHT22;62045;49.986;8.672;2022-10-31T08:22:35;19.20;71.40
27258;DHT22;62045;49.986;8.672;2022-10-31T08:27:39;19.20;71.40
27258;DHT22;62045;49.986;8.672;2022-10-31T08:32:42;19.20;71.30
27258;DHT22;62045;49.986;8.672;2022-10-31T08:38:18;19.20;71.30
27258;DHT22;62045;49.986;8.672;2022-10-31T08:43:20;19.20;71.20
27258;DHT22;62045;49.986;8.672;2022-10-31T08:48:24;19.20;71.10
27258;DHT22;62045;49.986;8.672;2022-10-31T08:53:26;19.10;71.00
27258;DHT22;62045;49.986;8.672;2022-10-31T08:58:44;19.10;71.00
27258;DHT22;62045;49.986;8.672;2022-10-31T09:03:48;19.10;71.00
27258;DHT22;62045;49.986;8.672;2022-10-31T09:08:49;19.10;70.90
27258;DHT22;62045;49.986;8.672;2022-10-31T09:13:53;19.10;70.90
27258;DHT22;62045;49.986;8.672;2022-10-31T09:19:12;19.10;70.90
27258;DHT22;62045;49.986;8.672;2022-10-31T09:24:13;19.10;70.80
27258;DHT22;62045;49.986;8.672;2022-10-31T09:29:17;19.10;70.80
27258;DHT22;62045;49.986;8.672;2022-10-31T09:34:19;19.10;70.80
27258;DHT22;62045;49.986;8.672;2022-10-31T09:39:26;19.10;70.90
27258;DHT22;62045;49.986;8.672;2022-10-31T09:44:43;19.10;71.00
27258;DHT22;62045;49.986;8.672;2022-10-31T09:50:07;19.10;70.70
27258;DHT22;62045;49.986;8.672;2022-10-31T09:55:16;19.10;70.70
27258;DHT22;62045;49.986;8.672;2022-10-31T10:00:20;19.10;70.70
27258;DHT22;62045;49.986;8.672;2022-10-31T10:05:27;19.10;70.70
27258;DHT22;62045;49.986;8.672;2022-10-31T10:10:43;19.10;70.70
27258;DHT22;62045;49.986;8.672;2022-10-31T10:16:16;19.20;70.80
27258;DHT22;62045;49.986;8.672;2022-10-31T10:21:26;19.20;70.80
27258;DHT22;62045;49.986;8.672;2022-10-31T10:26:36;19.20;70.80
27258;DHT22;62045;49.986;8.672;2022-10-31T10:31:41;19.20;70.80
27258;DHT22;62045;49.986;8.672;2022-10-31T10:36:44;19.20;70.80
27258;DHT22;62045;49.986;8.672;2022-10-31T10:41:47;19.20;70.90
27258;DHT22;62045;49.986;8.672;2022-10-31T10:46:53;19.20;71.00
27258;DHT22;62045;49.986;8.672;2022-10-31T10:51:58;19.20;71.10
27258;DHT22;62045;49.986;8.672;2022-10-31T10:57:06;19.20;71.20
27258;DHT22;62045;49.986;8.672;2022-10-31T11:02:19;19.20;71.40
27258;DHT22;62045;49.986;8.672;2022-10-31T11:07:20;19.20;71.40
27258;DHT22;62045;49.986;8.672;2022-10-31T11:12:24;19.20;71.40
27258;DHT22;62045;49.986;8.672;2022-10-31T11:17:31;19.20;71.40
27258;DHT22;62045;49.986;8.672;2022-10-31T11:22:33;19.20;71.40
27258;DHT22;62045;49.986;8.672;2022-10-31T11:27:34;19.30;71.30
27258;DHT22;62045;49.986;8.672;2022-10-31T11:32:36;19.30;71.30
27258;DHT22;62045;49.986;8.672;2022-10-31T11:37:43;19.30;71.40
27258;DHT22;62045;49.986;8.672;2022-10-31T11:42:44;19.30;71.30
27258;DHT22;62045;49.986;8.672;2022-10-31T11:47:49;19.30;71.40
27258;DHT22;62045;49.986;8.672;2022-10-31T11:52:50;19.30;71.50
27258;DHT22;62045;49.986;8.672;2022-10-31T11:57:53;19.40;71.60
27258;DHT22;62045;49.986;8.672;2022-10-31T12:03:26;19.40;71.50
27258;DHT22;62045;49.986;8.672;2022-10-31T12:08:30;19.40;71.40
27258;DHT22;62045;49.986;8.672;2022-10-31T12:13:36;19.40;71.40
27258;DHT22;62045;49.986;8.672;2022-10-31T12:18:50;19.40;71.30
27258;DHT22;62045;49.986;8.672;2022-10-31T12:24:00;19.50;71.40
27258;DHT22;62045;49.986;8.672;2022-10-31T12:29:22;19.50;71.40
27258;DHT22;62045;49.986;8.672;2022-10-31T12:34:48;19.50;71.50
27258;DHT22;62045;49.986;8.672;2022-10-31T12:40:00;19.50;71.60
27258;DHT22;62045;49.986;8.672;2022-10-31T12:45:21;19.40;71.60
27258;DHT22;62045;49.986;8.672;2022-10-31T12:50:35;19.50;71.60
27258;DHT22;62045;49.986;8.672;2022-10-31T12:55:51;19.50;71.60
27258;DHT22;62045;49.986;8.672;2022-10-31T13:01:03;19.50;71.60
27258;DHT22;62045;49.986;8.672;2022-10-31T13:06:13;19.50;71.40
27258;DHT22;62045;49.986;8.672;2022-10-31T13:11:17;19.50;71.20
27258;DHT22;62045;49.986;8.672;2022-10-31T13:16:22;19.50;71.10
27258;DHT22;62045;49.986;8.672;2022-10-31T13:21:30;19.50;70.90
27258;DHT22;62045;49.986;8.672;2022-10-31T13:26:37;19.40;70.70
27258;DHT22;62045;49.986;8.672;2022-10-31T13:31:40;19.40;70.50
27258;DHT22;62045;49.986;8.672;2022-10-31T13:36:48;19.40;70.40
27258;DHT22;62045;49.986;8.672;2022-10-31T13:41:53;19.40;70.40
27258;DHT22;62045;49.986;8.672;2022-10-31T13:46:56;19.40;70.40
27258;DHT22;62045;49.986;8.672;2022-10-31T13:52:16;19.40;70.50
27258;DHT22;62045;49.986;8.672;2022-10-31T13:57:18;19.40;70.40
27258;DHT22;62045;49.986;8.672;2022-10-31T14:02:25;19.30;70.10
27258;DHT22;62045;49.986;8.672;2022-10-31T14:07:29;19.30;70.30
27258;DHT22;62045;49.986;8.672;2022-10-31T14:12:31;19.30;70.30
27258;DHT22;62045;49.986;8.672;2022-10-31T14:17:39;19.40;70.40
27258;DHT22;62045;49.986;8.672;2022-10-31T14:22:46;19.40;70.30
27258;DHT22;62045;49.986;8.672;2022-10-31T14:27:47;19.40;70.30
27258;DHT22;62045;49.986;8.672;2022-10-31T14:32:54;19.40;70.20
27258;DHT22;62045;49.986;8.672;2022-10-31T14:43:41;19.40;70.30
27258;DHT22;62045;49.986;8.672;2022-10-31T14:49:06;19.40;70.40
27258;DHT22;62045;49.986;8.672;2022-10-31T14:54:17;19.40;71.00
27258;DHT22;62045;49.986;8.672;2022-10-31T14:59:21;19.40;70.90
27258;DHT22;62045;49.986;8.672;2022-10-31T15:04:24;19.40;71.60
27258;DHT22;62045;49.986;8.672;2022-10-31T15:09:29;19.40;71.60
27258;DHT22;62045;49.986;8.672;2022-10-31T15:14:31;19.40;71.30
27258;DHT22;62045;49.986;8.672;2022-10-31T15:19:33;19.40;71.20
27258;DHT22;62045;49.986;8.672;2022-10-31T15:24:38;19.40;71.50
27258;DHT22;62045;49.986;8.672;2022-10-31T15:29:48;19.40;71.60
27258;DHT22;62045;49.986;8.672;2022-10-31T15:34:50;19.30;71.40
27258;DHT22;62045;49.986;8.672;2022-10-31T15:39:52;19.30;71.60
27258;DHT22;62045;49.986;8.672;2022-10-31T15:44:57;19.40;71.90
27258;DHT22;62045;49.986;8.672;2022-10-31T15:50:00;19.40;72.20
27258;DHT22;62045;49.986;8.672;2022-10-31T15:55:05;19.40;73.40
27258;DHT22;62045;49.986;8.672;2022-10-31T16:00:25;19.40;73.90
27258;DHT22;62045;49.986;8.672;2022-10-31T16:05:35;19.40;74.10
27258;DHT22;62045;49.986;8.672;2022-10-31T16:10:37;19.50;74.60
27258;DHT22;62045;49.986;8.672;2022-10-31T16:15:47;19.50;74.30
27258;DHT22;62045;49.986;8.672;2022-10-31T16:20:49;19.50;74.20
27258;DHT22;62045;49.986;8.672;2022-10-31T16:25:52;19.50;74.70
27258;DHT22;62045;49.986;8.672;2022-10-31T16:30:54;19.50;74.40
27258;DHT22;62045;49.986;8.672;2022-10-31T16:35:56;19.50;74.00
27258;DHT22;62045;49.986;8.672;2022-10-31T16:40:58;19.50;73.80
27258;DHT22;62045;49.986;8.672;2022-10-31T16:46:00;19.50;73.30
27258;DHT22;62045;49.986;8.672;2022-10-31T16:51:01;19.50;73.10
27258;DHT22;62045;49.986;8.672;2022-10-31T16:56:04;19.50;72.90
27258;DHT22;62045;49.986;8.672;2022-10-31T17:01:07;19.50;72.80
27258;DHT22;62045;49.986;8.672;2022-10-31T17:06:10;19.50;72.60
27258;DHT22;62045;49.986;8.672;2022-10-31T17:11:15;19.50;72.50
27258;DHT22;62045;49.986;8.672;2022-10-31T17:16:16;19.50;72.40
27258;DHT22;62045;49.986;8.672;2022-10-31T17:21:19;19.50;72.40
27258;DHT22;62045;49.986;8.672;2022-10-31T17:26:21;19.40;72.20
27258;DHT22;62045;49.986;8.672;2022-10-31T17:31:26;19.40;72.20
27258;DHT22;62045;49.986;8.672;2022-10-31T17:36:27;19.40;72.00
27258;DHT22;62045;49.986;8.672;2022-10-31T17:41:29;19.40;72.20
27258;DHT22;62045;49.986;8.672;2022-10-31T17:46:30;19.40;72.40
27258;DHT22;62045;49.986;8.672;2022-10-31T17:51:31;19.40;72.30
27258;DHT22;62045;49.986;8.672;2022-10-31T17:56:33;19.40;72.20
27258;DHT22;62045;49.986;8.672;2022-10-31T18:01:35;19.40;72.10
27258;DHT22;62045;49.986;8.672;2022-10-31T18:06:35;19.40;72.00
27258;DHT22;62045;49.986;8.672;2022-10-31T18:11:37;19.40;72.00
27258;DHT22;62045;49.986;8.672;2022-10-31T18:16:38;19.40;72.00
27258;DHT22;62045;49.986;8.672;2022-10-31T18:21:39;19.40;71.90
27258;DHT22;62045;49.986;8.672;2022-10-31T18:26:41;19.40;71.80
27258;DHT22;62045;49.986;8.672;2022-10-31T18:31:42;19.40;71.80
27258;DHT22;62045;49.986;8.672;2022-10-31T18:36:43;19.30;71.70
27258;DHT22;62045;49.986;8.672;2022-10-31T18:41:45;19.30;71.70
27258;DHT22;62045;49.986;8.672;2022-10-31T18:46:46;19.30;71.60
27258;DHT22;62045;49.986;8.672;2022-10-31T18:51:47;19.30;71.60
27258;DHT22;62045;49.986;8.672;2022-10-31T18:56:49;19.40;71.60
27258;DHT22;62045;49.986;8.672;2022-10-31T19:01:50;19.40;71.50
27258;DHT22;62045;49.986;8.672;2022-10-31T19:06:51;19.40;71.50
27258;DHT22;62045;49.986;8.672;2022-10-31T19:11:53;19.40;71.40
27258;DHT22;62045;49.986;8.672;2022-10-31T19:16:54;19.40;71.30
27258;DHT22;62045;49.986;8.672;2022-10-31T19:21:54;19.40;71.20
27258;DHT22;62045;49.986;8.672;2022-10-31T19:26:56;19.40;71.10
27258;DHT22;62045;49.986;8.672;2022-10-31T19:31:57;19.40;71.00
27258;DHT22;62045;49.986;8.672;2022-10-31T19:36:58;19.40;70.90
27258;DHT22;62045;49.986;8.672;2022-10-31T19:42:02;19.40;70.90
27258;DHT22;62045;49.986;8.672;2022-10-31T19:47:03;19.40;71.20
27258;DHT22;62045;49.986;8.672;2022-10-31T19:52:04;19.40;71.00
27258;DHT22;62045;49.986;8.672;2022-10-31T19:57:06;19.30;70.90
27258;DHT22;62045;49.986;8.672;2022-10-31T20:02:09;19.30;70.90
27258;DHT22;62045;49.986;8.672;2022-10-31T20:07:11;19.30;70.90
27258;DHT22;62045;49.986;8.672;2022-10-31T20:12:13;19.30;70.80
27258;DHT22;62045;49.986;8.672;2022-10-31T20:17:14;19.30;70.80
27258;DHT22;62045;49.986;8.672;2022-10-31T20:22:14;19.30;70.80
27258;DHT22;62045;49.986;8.672;2022-10-31T20:27:16;19.30;70.70
27258;DHT22;62045;49.986;8.672;2022-10-31T20:32:18;19.30;70.70
27258;DHT22;62045;49.986;8.672;2022-10-31T20:37:19;19.20;70.60
27258;DHT22;62045;49.986;8.672;2022-10-31T20:42:21;19.20;70.60
27258;DHT22;62045;49.986;8.672;2022-10-31T20:47:22;19.20;70.50
27258;DHT22;62045;49.986;8.672;2022-10-31T20:52:23;19.20;70.50
27258;DHT22;62045;49.986;8.672;2022-10-31T20:57:25;19.20;70.40
27258;DHT22;62045;49.986;8.672;2022-10-31T21:02:26;19.20;70.30
27258;DHT22;62045;49.986;8.672;2022-10-31T21:07:29;19.20;70.30
27258;DHT22;62045;49.986;8.672;2022-10-31T21:12:31;19.20;70.40
27258;DHT22;62045;49.986;8.672;2022-10-31T21:17:32;19.20;70.40
27258;DHT22;62045;49.986;8.672;2022-10-31T21:22:32;19.20;70.40
27258;DHT22;62045;49.986;8.672;2022-10-31T21:27:34;19.30;70.40
27258;DHT22;62045;49.986;8.672;2022-10-31T21:32:35;19.30;70.40
27258;DHT22;62045;49.986;8.672;2022-10-31T21:37:36;19.30;70.40
27258;DHT22;62045;49.986;8.672;2022-10-31T21:42:38;19.30;70.30
27258;DHT22;62045;49.986;8.672;2022-10-31T21:47:39;19.30;70.10
27258;DHT22;62045;49.986;8.672;2022-10-31T21:52:39;19.30;70.00
27258;DHT22;62045;49.986;8.672;2022-10-31T21:57:41;19.20;69.90
27258;DHT22;62045;49.986;8.672;2022-10-31T22:02:42;19.20;69.90
27258;DHT22;62045;49.986;8.672;2022-10-31T22:07:43;19.20;69.90
27258;DHT22;62045;49.986;8.672;2022-10-31T22:12:45;19.20;69.90
27258;DHT22;62045;49.986;8.672;2022-10-31T22:17:45;19.20;70.70
27258;DHT22;62045;49.986;8.672;2022-10-31T22:22:46;19.20;69.90
27258;DHT22;62045;49.986;8.672;2022-10-31T22:27:50;19.10;69.80
27258;DHT22;62045;49.986;8.672;2022-10-31T22:32:51;19.20;69.90
27258;DHT22;62045;49.986;8.672;2022-10-31T22:37:52;19.10;69.80
27258;DHT22;62045;49.986;8.672;2022-10-31T22:42:54;19.10;69.80
27258;DHT22;62045;49.986;8.672;2022-10-31T22:47:54;19.10;69.80
27258;DHT22;62045;49.986;8.672;2022-10-31T22:52:55;19.10;69.70
27258;DHT22;62045;49.986;8.672;2022-10-31T22:57:57;19.10;69.80
27258;DHT22;62045;49.986;8.672;2022-10-31T23:02:58;19.10;69.80
27258;DHT22;62045;49.986;8.672;2022-10-31T23:07:58;19.10;69.70
27258;DHT22;62045;49.986;8.672;2022-10-31T23:13:01;19.10;69.70
27258;DHT22;62045;49.986;8.672;2022-10-31T23:18:01;19.10;69.70
27258;DHT22;62045;49.986;8.672;2022-10-31T23:23:02;19.00;69.70
27258;DHT22;62045;49.986;8.672;2022-10-31T23:28:05;19.00;69.70
27258;DHT22;62045;49.986;8.672;2022-10-31T23:33:05;19.00;69.60
27258;DHT22;62045;49.986;8.672;2022-10-31T23:38:06;19.00;69.70
27258;DHT22;62045;49.986;8.672;2022-10-31T23:43:08;19.00;69.70
27258;DHT22;62045;49.986;8.672;2022-10-31T23:48:09;19.00;69.80
27258;DHT22;62045;49.986;8.672;2022-10-31T23:53:10;19.00;69.70
27258;DHT22;62045;49.986;8.672;2022-10-31T23:58:12;19.10;69.80
